Time;durP1;ratioP1;P1;durP2;ratioP2;P2;SDS_P1;SDS_P2;PMS_P1;PMS_P2;Temp;Humidity;BMP_temperature;BMP_pressure;BME280_temperature;BME280_humidity;BME280_pressure;Samples;Min_cycle;Max_cycle;Signal;HPM_P1;HPM_P2
2022/05/22 00:00:07;;;;;;;4.30;1.80;;;11.10;99.90;;;;;;5007140;28;20523;-52
2022/05/22 00:02:34;;;;;;;2.57;1.60;;;11.00;99.90;;;;;;5009625;28;20483;-53
2022/05/22 00:05:01;;;;;;;2.60;1.47;;;11.00;99.90;;;;;;5007200;28;20953;-52
2022/05/22 00:07:27;;;;;;;6.17;1.83;;;11.00;99.90;;;;;;5006631;28;20562;-52
2022/05/22 00:09:54;;;;;;;4.43;1.57;;;11.00;99.90;;;;;;5007769;28;20547;-52
2022/05/22 00:12:22;;;;;;;2.50;1.73;;;11.00;99.90;;;;;;5009778;28;20535;-52
2022/05/22 00:14:48;;;;;;;2.00;1.20;;;11.00;99.90;;;;;;5010093;28;21039;-52
2022/05/22 00:17:15;;;;;;;8.70;1.63;;;11.00;99.90;;;;;;5007653;28;20566;-52
2022/05/22 00:19:42;;;;;;;3.23;1.57;;;11.00;99.90;;;;;;5004965;28;20578;-53
2022/05/22 00:22:08;;;;;;;4.57;1.63;;;11.00;99.90;;;;;;5006578;28;20494;-53
2022/05/22 00:24:35;;;;;;;4.40;2.03;;;11.00;99.90;;;;;;5006212;28;20989;-52
2022/05/22 00:27:03;;;;;;;2.90;1.67;;;11.00;99.90;;;;;;5007008;28;20551;-52
2022/05/22 00:29:31;;;;;;;1.77;1.33;;;11.00;99.90;;;;;;5005987;28;20471;-52
2022/05/22 00:31:58;;;;;;;12.63;3.50;;;10.90;99.90;;;;;;5008099;28;20464;-52
2022/05/22 00:34:25;;;;;;;2.17;1.67;;;10.90;99.90;;;;;;5009162;28;20538;-52
2022/05/22 00:36:52;;;;;;;6.27;1.83;;;10.90;99.90;;;;;;5007566;28;21178;-52
2022/05/22 00:39:18;;;;;;;8.50;1.40;;;10.90;99.90;;;;;;5008214;28;20946;-53
2022/05/22 00:41:49;;;;;;;11.17;2.70;;;10.90;99.90;;;;;;5007946;28;20506;-53
2022/05/22 00:44:17;;;;;;;6.03;2.10;;;11.00;99.90;;;;;;5005638;28;20466;-53
2022/05/22 00:46:45;;;;;;;4.20;2.07;;;11.00;99.90;;;;;;5008929;28;20545;-52
2022/05/22 00:49:17;;;;;;;6.13;2.40;;;11.00;99.90;;;;;;5001302;28;20542;-53
2022/05/22 00:51:48;;;;;;;5.73;2.03;;;11.00;99.90;;;;;;5007070;28;20890;-53
2022/05/22 00:54:19;;;;;;;12.87;2.13;;;11.00;99.90;;;;;;5009713;28;20865;-52
2022/05/22 00:56:51;;;;;;;2.83;1.50;;;11.00;99.90;;;;;;5006069;28;20562;-53
2022/05/22 00:59:21;;;;;;;4.70;1.60;;;11.00;99.90;;;;;;5006045;28;20558;-53
2022/05/22 01:01:49;;;;;;;2.13;1.40;;;11.00;99.90;;;;;;5007469;28;20953;-52
2022/05/22 01:04:21;;;;;;;3.90;1.60;;;11.00;99.90;;;;;;5006940;28;20484;-52
2022/05/22 01:06:48;;;;;;;8.20;1.70;;;11.00;99.90;;;;;;5003493;28;20921;-52
2022/05/22 01:09:15;;;;;;;4.33;2.17;;;11.00;99.90;;;;;;5008478;28;20562;-52
2022/05/22 01:11:42;;;;;;;1.80;1.37;;;10.90;99.90;;;;;;5007677;28;20566;-52
2022/05/22 01:14:11;;;;;;;4.00;1.50;;;11.00;99.90;;;;;;5002034;28;20544;-52
2022/05/22 01:16:38;;;;;;;4.63;1.60;;;10.90;99.90;;;;;;5009384;28;20517;-52
2022/05/22 01:19:12;;;;;;;3.83;1.93;;;10.90;99.90;;;;;;5008834;28;20654;-53
2022/05/22 01:21:40;;;;;;;7.90;1.50;;;10.90;99.90;;;;;;5002948;28;20983;-53
2022/05/22 01:24:09;;;;;;;5.27;2.00;;;10.80;99.90;;;;;;5005337;28;20594;-52
2022/05/22 01:26:36;;;;;;;2.33;1.33;;;10.70;99.90;;;;;;5006818;28;20499;-52
2022/05/22 01:29:03;;;;;;;5.07;1.90;;;10.70;1.40;;;;;;5003304;28;20922;-52
2022/05/22 01:31:29;;;;;;;5.47;1.67;;;10.70;99.90;;;;;;5004767;28;20459;-52
2022/05/22 01:33:56;;;;;;;2.13;1.33;;;10.60;99.90;;;;;;5006200;28;20539;-53
2022/05/22 01:36:22;;;;;;;4.97;2.00;;;10.60;99.90;;;;;;5007449;28;20546;-52
2022/05/22 01:38:49;;;;;;;6.00;1.63;;;10.50;99.90;;;;;;5005582;28;21044;-52
2022/05/22 01:41:17;;;;;;;3.03;1.53;;;10.50;99.90;;;;;;5001270;28;20542;-53
2022/05/22 01:43:44;;;;;;;4.07;1.73;;;10.50;99.90;;;;;;5018613;22;21026;-53
2022/05/22 01:46:11;;;;;;;5.60;2.33;;;10.50;99.90;;;;;;5014286;28;20482;-53
2022/05/22 01:48:37;;;;;;;4.73;1.73;;;10.40;99.90;;;;;;5006914;28;20491;-53
2022/05/22 01:51:05;;;;;;;7.53;2.17;;;10.40;99.90;;;;;;5013530;28;20536;-53
2022/05/22 01:53:32;;;;;;;6.37;1.67;;;10.40;99.90;;;;;;4991096;28;20546;-52
2022/05/22 01:56:00;;;;;;;7.20;2.07;;;10.30;99.90;;;;;;4986995;28;20504;-53
2022/05/22 01:58:28;;;;;;;6.97;2.60;;;10.40;99.90;;;;;;4988779;28;20492;-53
2022/05/22 02:00:55;;;;;;;4.70;1.87;;;10.30;99.90;;;;;;4984238;28;20464;-53
2022/05/22 02:03:22;;;;;;;5.20;2.00;;;10.30;99.90;;;;;;4991545;28;20526;-53
2022/05/22 02:05:48;;;;;;;7.63;2.00;;;10.20;99.90;;;;;;4990370;28;20985;-53
2022/05/22 02:08:22;;;;;;;4.87;2.07;;;10.20;99.90;;;;;;4984641;28;20503;-53
2022/05/22 02:10:51;;;;;;;7.97;2.10;;;10.20;99.90;;;;;;4986673;28;20460;-54
2022/05/22 02:13:20;;;;;;;1.73;1.63;;;10.20;99.90;;;;;;4983343;28;20476;-53
2022/05/22 02:15:49;;;;;;;7.40;1.80;;;10.20;99.90;;;;;;4986990;28;20471;-53
2022/05/22 02:18:16;;;;;;;3.50;1.77;;;10.20;97.50;;;;;;4989101;28;20965;-55
2022/05/22 02:20:43;;;;;;;5.80;1.80;;;10.20;87.30;;;;;;4980552;28;20508;-53
2022/05/22 02:23:10;;;;;;;5.07;2.00;;;10.20;95.60;;;;;;4982302;28;20582;-54
2022/05/22 02:25:42;;;;;;;5.73;1.80;;;10.20;99.90;;;;;;4988958;28;20499;-54
2022/05/22 02:28:11;;;;;;;9.97;2.33;;;10.20;86.50;;;;;;4989125;28;20587;-54
2022/05/22 02:30:39;;;;;;;5.30;1.77;;;10.20;92.80;;;;;;4993440;28;20491;-54
2022/05/22 02:33:09;;;;;;;5.73;1.87;;;10.20;99.90;;;;;;4987224;28;21018;-52
2022/05/22 02:35:36;;;;;;;4.83;1.70;;;10.20;97.90;;;;;;4989258;28;20471;-54
2022/05/22 02:38:03;;;;;;;7.77;2.00;;;10.20;96.90;;;;;;4991907;28;20553;-54
2022/05/22 02:40:33;;;;;;;4.10;2.53;;;10.20;93.60;;;;;;4990677;28;20496;-54
2022/05/22 02:43:01;;;;;;;2.60;1.90;;;10.20;92.90;;;;;;4988716;28;20488;-53
2022/05/22 02:45:30;;;;;;;10.10;2.47;;;10.20;88.60;;;;;;4992395;28;20491;-53
2022/05/22 02:47:57;;;;;;;6.43;2.00;;;10.20;91.60;;;;;;4990238;28;20464;-55
2022/05/22 02:50:27;;;;;;;8.20;2.20;;;10.20;95.80;;;;;;4989148;28;20496;-54
2022/05/22 02:52:54;;;;;;;11.37;2.07;;;10.10;94.90;;;;;;4995655;28;20560;-54
2022/05/22 02:55:21;;;;;;;7.10;2.50;;;10.10;85.60;;;;;;4988146;28;20998;-54
2022/05/22 02:57:48;;;;;;;5.10;1.73;;;10.10;89.30;;;;;;4990966;28;20457;-53
2022/05/22 03:00:18;;;;;;;10.40;2.20;;;10.00;92.20;;;;;;4989001;28;20536;-54
2022/05/22 03:02:45;;;;;;;8.53;2.30;;;10.00;80.70;;;;;;4989652;28;21503;-54
2022/05/22 03:05:12;;;;;;;7.60;2.40;;;10.00;92.80;;;;;;4989669;28;20880;-54
2022/05/22 03:07:40;;;;;;;6.63;2.00;;;9.90;87.60;;;;;;4981290;28;20500;-54
2022/05/22 03:10:09;;;;;;;7.33;2.43;;;9.90;83.20;;;;;;4993645;28;20495;-54
2022/05/22 03:12:36;;;;;;;4.33;1.77;;;9.80;78.80;;;;;;4991506;28;20516;-54
2022/05/22 03:15:06;;;;;;;6.43;2.00;;;9.80;80.10;;;;;;4987533;28;20936;-53
2022/05/22 03:17:33;;;;;;;1.97;1.63;;;9.80;66.20;;;;;;4989256;28;20546;-54
2022/05/22 03:19:59;;;;;;;7.77;3.10;;;9.80;64.70;;;;;;4994810;28;20492;-53
2022/05/22 03:22:26;;;;;;;3.90;1.70;;;9.70;64.00;;;;;;4990299;28;20518;-53
2022/05/22 03:24:54;;;;;;;5.37;2.17;;;9.70;62.00;;;;;;4991936;28;20520;-53
2022/05/22 03:27:22;;;;;;;9.63;1.90;;;9.70;63.00;;;;;;4987562;28;20570;-53
2022/05/22 03:29:51;;;;;;;7.60;2.63;;;9.80;62.80;;;;;;4995774;28;20996;-54
2022/05/22 03:32:18;;;;;;;6.53;2.00;;;9.80;62.80;;;;;;4989877;28;20517;-53
2022/05/22 03:34:44;;;;;;;9.20;3.00;;;9.80;61.10;;;;;;4991214;28;20860;-54
2022/05/22 03:37:11;;;;;;;11.00;3.50;;;9.80;54.50;;;;;;4992089;28;20566;-54
2022/05/22 03:39:38;;;;;;;11.07;4.43;;;9.80;52.30;;;;;;4985385;28;20897;-52
2022/05/22 03:42:07;;;;;;;7.20;2.17;;;9.80;52.30;;;;;;4986107;28;20512;-54
2022/05/22 03:44:35;;;;;;;4.60;2.20;;;9.80;49.00;;;;;;4990204;28;20928;-53
2022/05/22 03:47:01;;;;;;;11.33;2.33;;;9.80;54.70;;;;;;4989950;28;20576;-53
2022/05/22 03:49:28;;;;;;;9.10;2.00;;;9.90;53.20;;;;;;4984349;28;20489;-54
2022/05/22 03:51:55;;;;;;;4.87;1.83;;;9.90;48.70;;;;;;4976155;28;20566;-53
2022/05/22 03:54:21;;;;;;;6.23;2.30;;;10.00;50.80;;;;;;4984771;28;20465;-53
2022/05/22 03:56:48;;;;;;;3.90;2.13;;;10.00;51.90;;;;;;4983388;28;20508;-53
2022/05/22 03:59:16;;;;;;;8.53;2.10;;;10.00;52.40;;;;;;4994329;28;20461;-54
2022/05/22 04:01:43;;;;;;;8.33;2.40;;;10.00;48.80;;;;;;4987046;28;20471;-54
2022/05/22 04:04:09;;;;;;;7.93;3.40;;;10.10;46.30;;;;;;4984751;28;20492;-53
2022/05/22 04:06:36;;;;;;;8.97;2.40;;;10.20;45.30;;;;;;4988258;28;20504;-54
2022/05/22 04:09:03;;;;;;;6.20;2.33;;;10.20;45.10;;;;;;4990820;28;20511;-54
2022/05/22 04:11:30;;;;;;;7.83;2.17;;;10.30;47.10;;;;;;4984682;28;20500;-53
2022/05/22 04:13:56;;;;;;;8.90;2.30;;;10.40;51.00;;;;;;4986061;28;20986;-54
2022/05/22 04:16:24;;;;;;;10.30;2.40;;;10.40;52.40;;;;;;4987646;28;20488;-54
2022/05/22 04:18:50;;;;;;;9.30;2.90;;;10.50;51.20;;;;;;4989935;28;20499;-54
2022/05/22 04:21:17;;;;;;;7.73;2.20;;;10.50;51.40;;;;;;4984735;28;20499;-54
2022/05/22 04:26:30;;;;;;;8.23;2.53;;;10.60;56.00;;;;;;4984880;28;20440;-54
2022/05/22 04:28:56;;;;;;;2.93;1.57;;;10.70;64.40;;;;;;4994991;28;20455;-53
2022/05/22 04:31:24;;;;;;;8.67;2.30;;;10.70;66.70;;;;;;4991874;28;20491;-53
2022/05/22 04:33:51;;;;;;;5.77;2.37;;;10.80;67.10;;;;;;4989736;28;20549;-53
2022/05/22 04:36:18;;;;;;;8.97;3.07;;;10.90;69.00;;;;;;4988720;28;21358;-53
2022/05/22 04:38:44;;;;;;;6.13;2.30;;;11.00;73.80;;;;;;4981360;28;20462;-53
2022/05/22 04:41:11;;;;;;;7.87;2.60;;;11.10;79.00;;;;;;4984233;28;20488;-54
2022/05/22 04:43:37;;;;;;;4.87;2.30;;;11.10;83.70;;;;;;4984125;28;20921;-54
2022/05/22 04:46:06;;;;;;;8.13;3.03;;;11.10;89.80;;;;;;4989553;28;20890;-54
2022/05/22 04:48:34;;;;;;;10.43;2.80;;;11.10;89.80;;;;;;4987916;28;20974;-54
2022/05/22 04:51:01;;;;;;;4.90;2.50;;;11.20;89.50;;;;;;4988574;28;20465;-53
2022/05/22 04:53:29;;;;;;;8.00;2.67;;;11.20;87.50;;;;;;4986972;28;20508;-54
2022/05/22 04:55:55;;;;;;;10.43;2.83;;;11.20;82.30;;;;;;4985250;28;20456;-54
2022/05/22 04:58:22;;;;;;;8.37;2.50;;;11.20;85.50;;;;;;4989096;28;20516;-53
2022/05/22 05:00:49;;;;;;;7.53;3.27;;;11.30;84.90;;;;;;4994004;28;20494;-53
2022/05/22 05:03:15;;;;;;;7.73;2.80;;;11.30;84.70;;;;;;4980440;28;21206;-53
2022/05/22 05:05:43;;;;;;;13.53;2.93;;;11.40;82.70;;;;;;4990482;28;20481;-53
2022/05/22 05:08:10;;;;;;;7.63;2.93;;;11.40;86.20;;;;;;4991045;28;20516;-53
2022/05/22 05:10:36;;;;;;;6.10;2.63;;;11.40;85.00;;;;;;4994297;28;20495;-53
2022/05/22 05:13:03;;;;;;;12.63;3.43;;;11.40;84.20;;;;;;4995064;28;20511;-53
2022/05/22 05:15:30;;;;;;;9.20;3.23;;;11.40;86.10;;;;;;4991441;28;20519;-53
2022/05/22 05:17:57;;;;;;;11.73;3.40;;;11.40;82.50;;;;;;4989602;28;20475;-55
2022/05/22 05:20:24;;;;;;;8.30;3.00;;;11.50;80.80;;;;;;4986128;28;20518;-54
2022/05/22 05:22:52;;;;;;;12.43;3.33;;;11.60;78.00;;;;;;4985725;28;20487;-54
2022/05/22 05:25:19;;;;;;;13.67;3.43;;;11.60;77.30;;;;;;4985350;28;20483;-53
2022/05/22 05:27:46;;;;;;;12.70;5.03;;;11.50;84.40;;;;;;4989484;28;20515;-53
2022/05/22 05:30:13;;;;;;;11.80;3.10;;;11.50;81.60;;;;;;4985411;28;20461;-53
2022/05/22 05:32:41;;;;;;;11.87;2.87;;;11.60;83.40;;;;;;4988314;28;20551;-54
2022/05/22 05:35:11;;;;;;;14.57;3.27;;;11.60;83.90;;;;;;4986344;28;20534;-54
2022/05/22 05:37:38;;;;;;;7.80;2.60;;;11.60;82.60;;;;;;4985866;28;20825;-54
2022/05/22 05:40:08;;;;;;;10.30;2.93;;;11.60;83.70;;;;;;4983102;28;20472;-54
2022/05/22 05:42:36;;;;;;;13.90;3.53;;;11.70;88.60;;;;;;4997952;28;20515;-54
2022/05/22 05:45:04;;;;;;;10.57;3.20;;;11.70;88.90;;;;;;4988497;28;20524;-54
2022/05/22 05:47:31;;;;;;;9.83;2.70;;;11.70;90.70;;;;;;4988494;28;20998;-54
2022/05/22 05:49:57;;;;;;;8.87;2.87;;;11.70;92.70;;;;;;4979076;28;20962;-54
2022/05/22 05:52:24;;;;;;;9.77;3.23;;;11.70;95.40;;;;;;4978017;28;21018;-54
2022/05/22 05:54:50;;;;;;;12.57;3.80;;;11.70;92.40;;;;;;4987907;28;20484;-53
2022/05/22 05:57:18;;;;;;;13.43;3.10;;;11.80;94.30;;;;;;4990418;28;20492;-54
2022/05/22 05:59:45;;;;;;;8.23;3.10;;;11.80;93.60;;;;;;4990231;28;21067;-54
2022/05/22 06:02:12;;;;;;;12.40;2.90;;;11.80;97.30;;;;;;4989948;28;21051;-54
2022/05/22 06:04:40;;;;;;;9.50;2.97;;;11.80;90.40;;;;;;4993413;28;20480;-53
2022/05/22 06:07:08;;;;;;;5.87;2.77;;;11.80;89.70;;;;;;4992840;28;20969;-53
2022/05/22 06:09:35;;;;;;;11.10;3.37;;;11.80;88.00;;;;;;4995122;28;20468;-53
2022/05/22 06:12:02;;;;;;;11.13;2.83;;;11.90;89.00;;;;;;4991512;28;20461;-55
2022/05/22 06:14:30;;;;;;;17.70;3.80;;;12.00;91.60;;;;;;4994122;28;20491;-53
2022/05/22 06:16:57;;;;;;;12.50;3.70;;;12.00;94.50;;;;;;4989272;28;20539;-53
2022/05/22 06:22:05;;;;;;;11.40;2.87;;;12.10;99.10;;;;;;4990233;28;20456;-52
2022/05/22 06:24:33;;;;;;;8.37;3.23;;;12.10;94.90;;;;;;4987686;28;20491;-54
2022/05/22 06:27:00;;;;;;;6.50;3.00;;;12.30;96.20;;;;;;4984072;28;20559;-53
2022/05/22 06:29:26;;;;;;;15.63;3.27;;;12.40;99.90;;;;;;4985734;28;20505;-53
2022/05/22 06:31:54;;;;;;;10.30;2.40;;;12.40;99.90;;;;;;4984184;28;20522;-53
2022/05/22 06:34:22;;;;;;;8.93;2.93;;;12.50;99.90;;;;;;4984506;28;20485;-53
2022/05/22 06:36:49;;;;;;;8.40;3.90;;;12.50;99.90;;;;;;4986947;28;20465;-52
2022/05/22 06:41:59;;;;;;;13.87;3.70;;;12.60;99.90;;;;;;4985367;28;20913;-52
2022/05/22 06:44:27;;;;;;;9.97;2.70;;;12.60;99.90;;;;;;4985038;28;20511;-52
2022/05/22 06:46:55;;;;;;;11.93;3.33;;;12.60;99.90;;;;;;4986364;28;20495;-52
2022/05/22 06:49:21;;;;;;;9.23;3.17;;;12.60;99.90;;;;;;4986270;28;20492;-53
2022/05/22 06:51:48;;;;;;;11.40;3.17;;;12.60;99.90;;;;;;4985314;28;20508;-53
2022/05/22 06:54:15;;;;;;;9.30;3.43;;;12.70;99.90;;;;;;4987268;28;20461;-54
2022/05/22 06:56:41;;;;;;;8.23;3.20;;;12.70;99.90;;;;;;4992239;28;20500;-53
2022/05/22 06:59:08;;;;;;;11.67;4.20;;;12.70;99.90;;;;;;4995454;28;20500;-54
2022/05/22 07:01:34;;;;;;;14.60;3.20;;;12.80;99.90;;;;;;4983750;28;20560;-53
2022/05/22 07:04:02;;;;;;;16.73;4.20;;;12.80;99.90;;;;;;4984763;28;20998;-53
2022/05/22 07:06:29;;;;;;;10.23;2.80;;;12.90;99.90;;;;;;4987471;28;20507;-54
2022/05/22 07:08:55;;;;;;;7.77;2.57;;;12.90;99.90;;;;;;4977345;28;20556;-53
2022/05/22 07:11:40;;;;;;;12.37;3.83;;;12.90;99.90;;;;;;4985621;28;20464;-54
2022/05/22 07:14:07;;;;;;;13.23;2.80;;;13.00;99.90;;;;;;4982999;28;23043;-54
2022/05/22 07:16:35;;;;;;;10.13;3.30;;;13.00;99.90;;;;;;4987199;28;20548;-53
2022/05/22 07:19:03;;;;;;;14.23;3.37;;;13.10;99.90;;;;;;4984428;28;20519;-53
2022/05/22 07:21:29;;;;;;;13.53;2.80;;;13.10;99.90;;;;;;4983774;28;20484;-54
2022/05/22 07:23:56;;;;;;;9.63;2.60;;;13.20;99.90;;;;;;4986329;28;20518;-53
2022/05/22 07:26:24;;;;;;;11.23;3.00;;;13.30;99.90;;;;;;4989977;28;20488;-54
2022/05/22 07:28:51;;;;;;;9.37;2.77;;;13.30;99.90;;;;;;4981369;28;20938;-52
2022/05/22 07:31:20;;;;;;;8.93;2.83;;;13.40;99.90;;;;;;4989834;28;20456;-54
2022/05/22 07:33:47;;;;;;;10.83;2.33;;;13.50;99.90;;;;;;4988470;28;20509;-54
2022/05/22 07:36:16;;;;;;;8.07;2.57;;;13.50;99.90;;;;;;4998276;28;20519;-54
2022/05/22 07:38:42;;;;;;;8.23;3.00;;;13.60;99.90;;;;;;4985901;28;20552;-54
2022/05/22 07:41:09;;;;;;;7.93;2.47;;;13.60;99.90;;;;;;4993060;28;20941;-52
2022/05/22 07:43:38;;;;;;;9.37;3.50;;;13.70;99.90;;;;;;4988648;28;20531;-51
2022/05/22 07:46:04;;;;;;;11.40;2.97;;;13.70;99.90;;;;;;4978044;28;20488;-49
2022/05/22 07:48:31;;;;;;;8.00;2.50;;;13.70;99.90;;;;;;4980978;28;20987;-50
2022/05/22 07:51:00;;;;;;;6.87;3.10;;;13.80;99.90;;;;;;4980548;28;20917;-50
2022/05/22 07:53:30;;;;;;;8.53;2.70;;;13.80;99.90;;;;;;4979290;28;20591;-50
2022/05/22 07:55:57;;;;;;;7.73;2.90;;;13.90;99.90;;;;;;4981773;28;20508;-50
2022/05/22 07:58:26;;;;;;;9.23;2.43;;;13.90;99.90;;;;;;4982223;28;20467;-49
2022/05/22 08:00:54;;;;;;;9.93;2.43;;;14.00;99.90;;;;;;4987497;28;20467;-50
2022/05/22 08:03:21;;;;;;;7.10;2.63;;;14.00;99.90;;;;;;4983556;28;20488;-50
2022/05/22 08:05:48;;;;;;;6.60;2.03;;;14.00;99.90;;;;;;4990776;28;20485;-50
2022/05/22 08:08:16;;;;;;;15.07;3.00;;;14.10;99.90;;;;;;4986748;28;20519;-50
2022/05/22 08:10:44;;;;;;;5.20;2.20;;;14.10;99.90;;;;;;4982453;28;20495;-49
2022/05/22 08:13:13;;;;;;;5.70;2.60;;;14.20;99.90;;;;;;4987439;28;21261;-50
2022/05/22 08:15:42;;;;;;;7.03;2.30;;;14.20;99.90;;;;;;4991972;28;20551;-49
2022/05/22 08:18:09;;;;;;;15.20;2.60;;;14.30;99.90;;;;;;4982937;28;20488;-50
2022/05/22 08:20:37;;;;;;;6.07;2.13;;;14.30;99.90;;;;;;4980967;28;20605;-50
2022/05/22 08:23:07;;;;;;;8.77;2.03;;;14.40;99.90;;;;;;4982398;28;20571;-51
2022/05/22 08:25:34;;;;;;;8.10;3.37;;;14.40;99.90;;;;;;4986686;28;20575;-50
2022/05/22 08:28:04;;;;;;;4.43;2.17;;;14.40;99.90;;;;;;4982262;28;20534;-50
2022/05/22 08:30:31;;;;;;;4.87;2.63;;;14.30;99.90;;;;;;4984877;28;20498;-50
2022/05/22 08:32:57;;;;;;;8.77;2.53;;;14.20;99.90;;;;;;4982900;28;20535;-49
2022/05/22 08:35:26;;;;;;;9.43;2.90;;;14.20;99.90;;;;;;4984225;28;20461;-50
2022/05/22 08:37:53;;;;;;;11.70;2.17;;;14.20;99.90;;;;;;4982193;28;20495;-51
2022/05/22 08:40:23;;;;;;;4.83;1.90;;;14.10;99.90;;;;;;4982138;28;20981;-51
2022/05/22 08:42:56;;;;;;;7.90;2.40;;;14.10;99.90;;;;;;4971550;28;21802;-50
2022/05/22 08:45:32;;;;;;;8.13;2.30;;;14.10;99.90;;;;;;4978853;28;20591;-50
2022/05/22 08:48:03;;;;;;;4.83;1.87;;;14.00;99.90;;;;;;4982358;28;20866;-49
2022/05/22 08:50:32;;;;;;;7.53;1.80;;;14.00;99.90;;;;;;4979391;28;20464;-51
2022/05/22 08:53:02;;;;;;;5.40;2.20;;;13.90;99.90;;;;;;4972800;28;20921;-49
2022/05/22 09:01:11;;;;;;;5.30;1.77;;;14.00;99.90;;;;;;4989183;28;20524;-50
2022/05/22 09:03:41;;;;;;;13.77;2.73;;;14.10;99.90;;;;;;4989136;28;20511;-50
2022/05/22 09:06:09;;;;;;;4.83;2.00;;;14.20;99.90;;;;;;4987066;28;20495;-50
2022/05/22 09:08:41;;;;;;;6.07;1.70;;;14.40;99.90;;;;;;4984771;28;20492;-50
2022/05/22 09:11:12;;;;;;;8.03;2.03;;;14.50;99.90;;;;;;4982997;28;20500;-49
2022/05/22 09:13:45;;;;;;;11.93;3.67;;;14.60;99.90;;;;;;4993863;28;20496;-50
2022/05/22 09:16:21;;;;;;;7.00;2.40;;;14.60;99.90;;;;;;4983896;28;20485;-50
2022/05/22 09:18:54;;;;;;;5.90;2.27;;;14.60;99.90;;;;;;4982956;28;20488;-51
2022/05/22 09:21:30;;;;;;;6.17;2.00;;;14.70;99.90;;;;;;4983736;28;20563;-50
2022/05/22 09:24:00;;;;;;;5.30;2.20;;;14.70;99.90;;;;;;4979507;28;20492;-50
2022/05/22 09:26:42;;;;;;;8.33;1.57;;;14.80;99.90;;;;;;4980628;28;20481;-50
2022/05/22 09:29:32;;;;;;;2.57;1.50;;;15.00;30.80;;;;;;4980410;28;21034;-50
2022/05/22 09:32:09;;;;;;;2.50;1.43;;;15.20;36.40;;;;;;4979026;28;20998;-49
2022/05/22 09:34:43;;;;;;;4.33;1.80;;;15.20;52.60;;;;;;4977878;28;20591;-50
2022/05/22 09:37:20;;;;;;;3.63;1.53;;;15.30;33.40;;;;;;4984967;28;20530;-49
2022/05/22 09:40:06;;;;;;;6.77;1.57;;;15.20;52.50;;;;;;4985608;28;20559;-50
2022/05/22 09:42:49;;;;;;;3.57;1.70;;;15.30;50.50;;;;;;4987567;28;20523;-50
2022/05/22 09:45:28;;;;;;;4.97;1.70;;;15.30;63.70;;;;;;4985701;28;20560;-50
2022/05/22 09:48:18;;;;;;;6.57;1.93;;;15.30;68.10;;;;;;4987261;28;20456;-50
2022/05/22 09:50:51;;;;;;;4.80;2.33;;;15.30;68.50;;;;;;4986665;28;21025;-50
2022/05/22 09:53:33;;;;;;;4.10;1.37;;;15.40;66.70;;;;;;4987759;28;20519;-51
2022/05/22 09:56:10;;;;;;;2.60;1.47;;;15.40;70.00;;;;;;4983260;28;20515;-50
2022/05/22 09:59:02;;;;;;;2.70;1.20;;;15.40;80.80;;;;;;4983516;28;20496;-50
2022/05/22 10:01:33;;;;;;;10.77;2.37;;;15.40;79.10;;;;;;4986044;28;20516;-50
2022/05/22 10:04:15;;;;;;;4.30;1.40;;;15.50;74.20;;;;;;4987773;28;20476;-50
2022/05/22 10:06:47;;;;;;;1.23;1.00;;;15.70;83.00;;;;;;4984155;28;20473;-49
2022/05/22 10:09:22;;;;;;;2.20;1.30;;;15.70;89.40;;;;;;4990108;28;20492;-49
2022/05/22 10:12:01;;;;;;;11.70;1.60;;;15.70;94.70;;;;;;4984083;28;21235;-49
2022/05/22 10:14:43;;;;;;;3.87;1.33;;;15.60;93.00;;;;;;4989772;28;21001;-50
2022/05/22 10:17:23;;;;;;;1.30;1.20;;;15.60;85.50;;;;;;4987315;28;20531;-49
2022/05/22 10:19:58;;;;;;;4.73;1.57;;;15.70;83.20;;;;;;4979769;28;20472;-49
2022/05/22 10:22:35;;;;;;;4.37;1.60;;;15.80;80.80;;;;;;4986442;28;20835;-49
2022/05/22 10:25:16;;;;;;;3.23;1.77;;;16.00;97.40;;;;;;4988806;28;20463;-49
2022/05/22 10:27:52;;;;;;;1.83;1.33;;;16.20;99.90;;;;;;4988494;28;20906;-49
2022/05/22 10:30:22;;;;;;;4.67;1.00;;;16.30;99.90;;;;;;4984180;28;20495;-48
2022/05/22 10:32:55;;;;;;;2.70;1.63;;;16.20;99.90;;;;;;4982585;28;21022;-49
2022/05/22 10:35:27;;;;;;;2.70;1.40;;;16.10;99.90;;;;;;4986966;28;20495;-48
2022/05/22 10:38:00;;;;;;;4.80;2.13;;;16.10;99.90;;;;;;4993064;28;20974;-49
2022/05/22 10:42:44;;;;;;;5.57;1.80;;;16.10;99.90;;;;;;4991854;28;20491;-50
2022/05/22 10:43:14;;;;;;;3.07;1.30;;;16.20;99.90;;;;;;4983270;28;20492;-49
2022/05/22 10:45:41;;;;;;;1.93;1.30;;;16.30;99.90;;;;;;4984787;28;20489;-49
2022/05/22 10:48:10;;;;;;;7.23;1.47;;;16.30;99.90;;;;;;4987604;28;20460;-49
2022/05/22 10:50:39;;;;;;;4.90;1.20;;;16.30;99.90;;;;;;4983755;28;20461;-48
2022/05/22 10:53:24;;;;;;;5.63;1.77;;;16.30;99.90;;;;;;4978910;28;20567;-48
2022/05/22 10:55:52;;;;;;;5.10;2.77;;;16.00;99.90;;;;;;4980808;28;20547;-47
2022/05/22 10:58:25;;;;;;;2.07;1.30;;;16.10;99.90;;;;;;4981239;28;20530;-49
2022/05/22 11:00:53;;;;;;;2.60;1.93;;;16.00;99.90;;;;;;4983401;28;20461;-48
2022/05/22 11:03:26;;;;;;;4.40;1.60;;;16.20;99.90;;;;;;4976466;28;20512;-48
2022/05/22 11:05:54;;;;;;;4.40;1.20;;;16.40;99.90;;;;;;4988196;28;20472;-49
2022/05/22 11:08:30;;;;;;;3.37;1.90;;;16.50;99.90;;;;;;4981955;28;20501;-48
2022/05/22 11:11:01;;;;;;;2.70;1.37;;;16.60;99.90;;;;;;4982503;28;20510;-48
2022/05/22 11:13:28;;;;;;;2.93;1.27;;;16.80;99.90;;;;;;4971267;28;20507;-49
2022/05/22 11:15:55;;;;;;;5.00;1.20;;;16.80;99.90;;;;;;4981258;28;20463;-48
2022/05/22 11:18:24;;;;;;;4.57;1.50;;;16.70;99.90;;;;;;4973272;28;20556;-48
2022/05/22 11:20:56;;;;;;;3.83;1.53;;;16.70;99.90;;;;;;4981866;28;20493;-49
2022/05/22 11:23:47;;;;;;;6.70;1.97;;;16.60;99.90;;;;;;4977296;28;20572;-50
2022/05/22 11:26:26;;;;;;;3.43;1.70;;;16.70;99.90;;;;;;4984239;28;21096;-49
2022/05/22 11:29:04;;;;;;;2.17;1.37;;;16.80;99.90;;;;;;4979938;28;20908;-48
2022/05/22 11:31:56;;;;;;;5.23;1.20;;;16.70;99.90;;;;;;4983582;28;20832;-49
2022/05/22 11:34:54;;;;;;;3.47;1.60;;;16.90;99.90;;;;;;4983839;28;20469;-49
2022/05/22 11:37:33;;;;;;;5.80;1.30;;;17.10;99.90;;;;;;4983711;28;20496;-50
2022/05/22 11:40:14;;;;;;;5.07;1.40;;;17.10;99.90;;;;;;4987661;28;20500;-49
2022/05/22 11:42:41;;;;;;;1.23;0.97;;;17.20;99.90;;;;;;4985120;28;20519;-48
2022/05/22 11:45:33;;;;;;;4.00;1.67;;;17.00;99.90;;;;;;4992107;28;20468;-49
2022/05/22 11:48:15;;;;;;;5.70;1.40;;;17.00;99.90;;;;;;4992743;28;20500;-50
2022/05/22 11:50:51;;;;;;;5.53;1.60;;;17.20;99.90;;;;;;4996316;28;20495;-49
2022/05/22 11:53:45;;;;;;;2.40;1.50;;;17.50;99.90;;;;;;4991116;28;20526;-49
2022/05/22 11:56:24;;;;;;;4.97;1.40;;;17.80;99.90;;;;;;4991900;28;20870;-49
2022/05/22 11:58:57;;;;;;;1.30;1.20;;;17.90;99.90;;;;;;4992740;28;20515;-48
2022/05/22 12:01:30;;;;;;;4.20;1.10;;;17.80;99.90;;;;;;4992764;28;20481;-49
2022/05/22 12:04:20;;;;;;;3.83;1.60;;;17.60;99.90;;;;;;4992789;28;20488;-48
2022/05/22 12:07:01;;;;;;;7.40;1.60;;;17.70;99.90;;;;;;4993173;28;20535;-49
2022/05/22 12:09:37;;;;;;;2.80;1.33;;;17.80;99.90;;;;;;4987682;28;20511;-48
2022/05/22 12:12:13;;;;;;;8.17;2.17;;;18.00;99.90;;;;;;4992464;28;20503;-49
2022/05/22 12:14:55;;;;;;;5.40;1.87;;;18.30;99.90;;;;;;4986352;28;20460;-49
2022/05/22 12:17:26;;;;;;;2.50;1.50;;;18.30;99.90;;;;;;4992599;28;20637;-49
2022/05/22 12:20:02;;;;;;;6.23;1.40;;;18.20;99.90;;;;;;4988555;28;20457;-49
2022/05/22 12:25:20;;;;;;;5.50;1.43;;;18.20;99.90;;;;;;4992591;28;20542;-48
2022/05/22 12:27:48;;;;;;;4.73;1.27;;;18.30;99.90;;;;;;4993415;28;20512;-49
2022/05/22 12:30:22;;;;;;;8.47;1.67;;;18.30;99.90;;;;;;4992197;28;20496;-49
2022/05/22 12:32:53;;;;;;;2.97;1.20;;;18.30;99.90;;;;;;4991107;28;20547;-49
2022/05/22 12:35:20;;;;;;;2.40;1.20;;;18.10;99.90;;;;;;4985066;28;20460;-49
2022/05/22 12:37:50;;;;;;;5.77;1.87;;;18.30;99.90;;;;;;4992861;28;20472;-49
2022/05/22 12:40:35;;;;;;;5.03;0.93;;;18.30;99.90;;;;;;4990652;28;20468;-49
2022/05/22 12:43:05;;;;;;;3.97;0.97;;;18.20;99.90;;;;;;4990451;28;20520;-50
2022/05/22 12:45:32;;;;;;;4.63;1.23;;;18.10;99.90;;;;;;4993182;28;20486;-48
2022/05/22 12:48:11;;;;;;;5.73;1.30;;;18.20;99.90;;;;;;4989636;28;21002;-50
2022/05/22 12:50:46;;;;;;;3.80;1.37;;;18.10;99.90;;;;;;4991907;28;20460;-48
2022/05/22 12:53:20;;;;;;;2.10;1.70;;;17.90;99.90;;;;;;4993568;28;20542;-48
2022/05/22 12:55:48;;;;;;;2.73;1.40;;;17.90;99.90;;;;;;4991982;28;20547;-49
2022/05/22 12:58:37;;;;;;;2.03;1.30;;;18.10;99.90;;;;;;4992754;28;20551;-48
2022/05/22 13:01:03;;;;;;;6.93;1.53;;;18.40;99.90;;;;;;4990571;28;20461;-49
2022/05/22 13:03:36;;;;;;;1.67;1.07;;;18.60;99.90;;;;;;4992083;28;20512;-48
2022/05/22 13:06:06;;;;;;;4.03;2.10;;;18.80;99.90;;;;;;4992182;28;20920;-48
2022/05/22 13:08:39;;;;;;;3.20;1.30;;;18.90;99.90;;;;;;4992568;28;20456;-48
2022/05/22 13:11:12;;;;;;;5.67;1.33;;;19.10;99.90;;;;;;4990834;28;20555;-50
2022/05/22 13:13:48;;;;;;;3.40;1.67;;;19.30;99.90;;;;;;4992176;28;20527;-49
2022/05/22 13:16:25;;;;;;;8.53;1.50;;;19.40;99.90;;;;;;4991827;28;20456;-48